Time;durP1;ratioP1;P1;durP2;ratioP2;P2;SDS_P1;SDS_P2;PMS_P1;PMS_P2;Temp;Humidity;BMP_temperature;BMP_pressure;BME280_temperature;BME280_humidity;BME280_pressure;Samples;Min_cycle;Max_cycle;Signal;HPM_P1;HPM_P2
2022/02/07 00:02:01;;;;;;;;;127.40;126.80;;;;;;;;5069030;28;8797;-81
2022/02/07 00:04:33;;;;;;;;;128.50;128.00;;;;;;;;5076824;28;8873;-81
2022/02/07 00:06:59;;;;;;;;;118.80;118.00;;;;;;;;5075268;28;8784;-81
2022/02/07 00:09:25;;;;;;;;;116.00;114.75;;;;;;;;5076844;28;9693;-81
2022/02/07 00:11:50;;;;;;;;;136.00;136.00;;;;;;;;5076773;28;9564;-81
2022/02/07 00:14:15;;;;;;;;;110.50;110.50;;;;;;;;5076101;28;8859;-80
2022/02/07 00:16:42;;;;;;;;;104.00;104.00;;;;;;;;5076413;28;8824;-76
2022/02/07 00:19:12;;;;;;;;;109.20;109.20;;;;;;;;5076495;28;8817;-76
2022/02/07 00:21:37;;;;;;;;;104.25;104.25;;;;;;;;5076316;28;8875;-76
2022/02/07 00:24:03;;;;;;;;;96.00;93.33;;;;;;;;5076451;28;9505;-76
2022/02/07 00:26:28;;;;;;;;;96.33;95.00;;;;;;;;5076328;28;8856;-76
2022/02/07 00:28:54;;;;;;;;;82.00;69.50;;;;;;;;5076169;28;8824;-76
2022/02/07 00:31:19;;;;;;;;;78.00;64.25;;;;;;;;5076500;28;8947;-76
2022/02/07 00:33:45;;;;;;;;;94.00;88.50;;;;;;;;5062599;28;8811;-76
2022/02/07 00:36:13;;;;;;;;;86.20;75.60;;;;;;;;5076065;28;8855;-76
2022/02/07 00:38:40;;;;;;;;;81.20;67.20;;;;;;;;5076196;28;9734;-76
2022/02/07 00:41:16;;;;;;;;;82.40;70.00;;;;;;;;5076472;28;8800;-76
2022/02/07 00:43:44;;;;;;;;;82.75;70.75;;;;;;;;5075771;28;8823;-76
2022/02/07 00:46:12;;;;;;;;;86.75;74.75;;;;;;;;5076040;28;8840;-76
2022/02/07 00:48:38;;;;;;;;;84.33;71.00;;;;;;;;5076030;28;8776;-76
2022/02/07 00:51:04;;;;;;;;;77.80;64.40;;;;;;;;5074374;28;10499;-76
2022/02/07 00:53:31;;;;;;;;;77.50;63.00;;;;;;;;5075901;28;8812;-76
2022/02/07 00:55:57;;;;;;;;;70.60;58.40;;;;;;;;5076020;28;8808;-76
2022/02/07 00:58:22;;;;;;;;;75.50;62.00;;;;;;;;5075487;28;8864;-76
2022/02/07 01:00:47;;;;;;;;;70.75;58.75;;;;;;;;5076042;28;8808;-76
2022/02/07 01:03:13;;;;;;;;;90.50;80.00;;;;;;;;5075518;28;11591;-76
2022/02/07 01:05:40;;;;;;;;;81.25;67.00;;;;;;;;5075910;28;8828;-76
2022/02/07 01:08:06;;;;;;;;;80.00;66.20;;;;;;;;5075560;28;8797;-76
2022/02/07 01:10:43;;;;;;;;;90.50;84.00;;;;;;;;5078713;28;8969;-76
2022/02/07 01:13:18;;;;;;;;;91.40;83.60;;;;;;;;5062862;28;8898;-76
2022/02/07 01:15:56;;;;;;;;;65.40;55.20;;;;;;;;5075528;28;8804;-76
2022/02/07 01:48:12;;;;;;;;;75.00;61.80;;;;;;;;5075277;28;8793;-76
2022/02/07 01:55:59;;;;;;;;;70.50;57.75;;;;;;;;5063502;28;8781;-76
2022/02/07 01:58:25;;;;;;;;;79.00;65.00;;;;;;;;5074637;28;8842;-76
2022/02/07 02:00:51;;;;;;;;;82.25;68.75;;;;;;;;5075284;28;8777;-76
2022/02/07 02:03:16;;;;;;;;;70.67;58.00;;;;;;;;5075000;28;8789;-76
2022/02/07 02:05:42;;;;;;;;;65.00;54.75;;;;;;;;5075073;28;8788;-76
2022/02/07 02:08:09;;;;;;;;;75.20;62.60;;;;;;;;5074930;28;9926;-76
2022/02/07 02:10:37;;;;;;;;;70.00;57.75;;;;;;;;5075218;28;8784;-76
2022/02/07 02:13:11;;;;;;;;;83.20;69.20;;;;;;;;5074436;28;8842;-76
2022/02/07 02:37:11;;;;;;;;;86.50;73.50;;;;;;;;5074234;28;11536;-76
2022/02/07 02:47:48;;;;;;;;;77.67;64.83;;;;;;;;5074482;28;8733;-76
2022/02/07 02:50:31;;;;;;;;;75.00;62.00;;;;;;;;5072644;28;8871;-76
2022/02/07 02:52:58;;;;;;;;;62.00;52.00;;;;;;;;5074340;28;8729;-76
2022/02/07 02:55:23;;;;;;;;;61.80;52.80;;;;;;;;5074481;28;8809;-76
2022/02/07 02:57:49;;;;;;;;;66.00;56.00;;;;;;;;5073880;28;8824;-76
2022/02/07 03:00:14;;;;;;;;;73.75;59.75;;;;;;;;5074336;28;8812;-76
2022/02/07 03:02:40;;;;;;;;;70.33;59.00;;;;;;;;5072852;28;8856;-76
2022/02/07 03:05:06;;;;;;;;;62.75;53.75;;;;;;;;5074209;28;8891;-76
2022/02/07 03:07:31;;;;;;;;;70.20;58.40;;;;;;;;5074231;28;8843;-76
2022/02/07 03:09:59;;;;;;;;;76.00;62.33;;;;;;;;5074109;28;8824;-76
2022/02/07 03:12:26;;;;;;;;;61.75;52.50;;;;;;;;5074066;28;9620;-76
2022/02/07 03:14:52;;;;;;;;;62.40;52.00;;;;;;;;5074197;28;8784;-76
2022/02/07 03:17:17;;;;;;;;;61.40;51.60;;;;;;;;5069496;28;8895;-76
2022/02/07 03:19:43;;;;;;;;;82.50;67.00;;;;;;;;5074117;28;8792;-76
2022/02/07 03:22:09;;;;;;;;;70.67;59.00;;;;;;;;5073756;28;8848;-76
2022/02/07 03:24:34;;;;;;;;;60.25;51.25;;;;;;;;5072582;28;8820;-76
2022/02/07 03:27:00;;;;;;;;;71.00;59.25;;;;;;;;5076025;28;8789;-76
2022/02/07 03:29:25;;;;;;;;;77.33;63.33;;;;;;;;5077484;28;11592;-76
2022/02/07 03:31:51;;;;;;;;;70.25;58.75;;;;;;;;5077409;28;8828;-76
2022/02/07 03:34:16;;;;;;;;;65.25;56.00;;;;;;;;5064049;28;8804;-76
2022/02/07 03:36:42;;;;;;;;;68.00;56.00;;;;;;;;5077338;28;8855;-76
2022/02/07 03:39:08;;;;;;;;;66.00;55.75;;;;;;;;5064410;28;8800;-76
2022/02/07 03:41:33;;;;;;;;;72.50;59.00;;;;;;;;5075807;28;11230;-76
2022/02/07 03:43:58;;;;;;;;;69.50;58.75;;;;;;;;5075517;28;9376;-76
2022/02/07 03:46:24;;;;;;;;;80.50;66.25;;;;;;;;5075975;28;8848;-76
2022/02/07 03:48:49;;;;;;;;;70.75;59.75;;;;;;;;5077120;28;8812;-76
2022/02/07 03:51:14;;;;;;;;;57.33;49.00;;;;;;;;5077159;28;8812;-76
2022/02/07 03:53:40;;;;;;;;;74.50;62.25;;;;;;;;5076272;28;8832;-76
2022/02/07 03:56:06;;;;;;;;;71.00;59.25;;;;;;;;5077023;28;8846;-76
2022/02/07 03:58:31;;;;;;;;;70.00;57.33;;;;;;;;5076657;28;8826;-76
2022/02/07 04:00:57;;;;;;;;;68.00;56.75;;;;;;;;5075603;28;11642;-76
2022/02/07 04:03:26;;;;;;;;;79.00;65.67;;;;;;;;5076975;28;8788;-76
2022/02/07 04:08:19;;;;;;;;;63.50;53.75;;;;;;;;5076837;28;11203;-76
2022/02/07 04:13:33;;;;;;;;;69.25;58.75;;;;;;;;5076656;28;8793;-76
2022/02/07 04:16:00;;;;;;;;;71.75;59.25;;;;;;;;5076562;28;8847;-76
2022/02/07 04:18:28;;;;;;;;;65.00;53.00;;;;;;;;5076698;28;8803;-76
2022/02/07 04:20:54;;;;;;;;;70.80;59.60;;;;;;;;5076461;28;11070;-76
2022/02/07 04:23:19;;;;;;;;;75.67;63.00;;;;;;;;5076455;28;8821;-76
2022/02/07 04:25:45;;;;;;;;;56.67;47.00;;;;;;;;5075205;28;8820;-76
2022/02/07 04:28:10;;;;;;;;;61.00;52.33;;;;;;;;5076456;28;8820;-76
2022/02/07 04:30:35;;;;;;;;;60.00;49.75;;;;;;;;5076895;28;8834;-76
2022/02/07 04:33:01;;;;;;;;;68.75;56.50;;;;;;;;5067181;28;8807;-76
2022/02/07 04:35:26;;;;;;;;;66.25;55.25;;;;;;;;5072562;28;8800;-76
2022/02/07 04:37:51;;;;;;;;;69.33;58.67;;;;;;;;5076045;28;8918;-76
2022/02/07 04:40:17;;;;;;;;;68.75;56.50;;;;;;;;5076568;28;8800;-76
2022/02/07 04:42:42;;;;;;;;;76.00;62.25;;;;;;;;5074700;28;8974;-76
2022/02/07 04:53:18;;;;;;;;;72.75;59.25;;;;;;;;5073885;28;8835;-76
2022/02/07 05:03:18;;;;;;;;;65.25;55.50;;;;;;;;5076157;28;8777;-76
2022/02/07 05:13:48;;;;;;;;;83.75;67.75;;;;;;;;5075667;28;8808;-76
2022/02/07 05:16:21;;;;;;;;;70.00;59.50;;;;;;;;5058107;28;8931;-76
2022/02/07 05:18:49;;;;;;;;;58.25;47.75;;;;;;;;5070321;28;8844;-76
2022/02/07 05:21:15;;;;;;;;;50.50;45.25;;;;;;;;5074284;28;8915;-76
2022/02/07 05:23:40;;;;;;;;;78.00;64.00;;;;;;;;5075538;28;9057;-76
2022/02/07 05:26:05;;;;;;;;;56.00;46.67;;;;;;;;5075960;28;8824;-76
2022/02/07 05:28:31;;;;;;;;;74.25;60.25;;;;;;;;5073912;28;11034;-76
2022/02/07 05:30:56;;;;;;;;;66.50;53.00;;;;;;;;5075933;28;8804;-76
2022/02/07 05:33:22;;;;;;;;;69.25;57.75;;;;;;;;5063226;28;8819;-76
2022/02/07 05:35:47;;;;;;;;;41.75;38.50;;;;;;;;5074576;28;8820;-76
2022/02/07 05:38:12;;;;;;;;;77.33;63.00;;;;;;;;5074131;28;8986;-76
2022/02/07 05:40:51;;;;;;;;;66.75;57.00;;;;;;;;5074012;28;9568;-76
2022/02/07 05:43:17;;;;;;;;;50.33;42.00;;;;;;;;5075263;28;8788;-76
2022/02/07 05:45:42;;;;;;;;;63.75;53.00;;;;;;;;5075422;28;9697;-76
2022/02/07 05:48:08;;;;;;;;;67.00;55.25;;;;;;;;5074875;28;11609;-76
2022/02/07 05:50:33;;;;;;;;;74.00;61.67;;;;;;;;5073355;28;8820;-76
2022/02/07 05:52:59;;;;;;;;;81.00;66.50;;;;;;;;5069875;28;8823;-76
2022/02/07 05:55:25;;;;;;;;;66.00;55.50;;;;;;;;5068321;28;8816;-76
2022/02/07 05:57:50;;;;;;;;;47.00;41.75;;;;;;;;5072955;28;8808;-76
2022/02/07 06:00:15;;;;;;;;;75.00;60.75;;;;;;;;5075132;28;8919;-76
2022/02/07 06:02:41;;;;;;;;;58.50;49.75;;;;;;;;5074866;28;8804;-76
2022/02/07 06:05:06;;;;;;;;;72.50;61.00;;;;;;;;5074407;28;8947;-76
2022/02/07 06:07:32;;;;;;;;;74.00;61.67;;;;;;;;5061027;28;8814;-75
2022/02/07 06:09:57;;;;;;;;;69.75;57.00;;;;;;;;5075261;28;8820;-76
2022/02/07 06:12:22;;;;;;;;;73.00;61.00;;;;;;;;5074565;28;9627;-76
2022/02/07 06:14:47;;;;;;;;;78.50;63.25;;;;;;;;5072612;28;8919;-76
2022/02/07 06:17:13;;;;;;;;;81.50;66.75;;;;;;;;5070052;28;8870;-76
2022/02/07 06:19:38;;;;;;;;;67.75;55.00;;;;;;;;5074172;28;8950;-76
2022/02/07 06:22:04;;;;;;;;;57.33;50.33;;;;;;;;5074407;28;8847;-76
2022/02/07 06:24:30;;;;;;;;;68.40;57.40;;;;;;;;5073210;28;8980;-76
2022/02/07 06:26:56;;;;;;;;;70.25;59.25;;;;;;;;5074025;28;8816;-76
2022/02/07 06:29:22;;;;;;;;;70.00;59.00;;;;;;;;5071995;28;8781;-76
2022/02/07 06:31:47;;;;;;;;;70.50;59.50;;;;;;;;5074620;28;8803;-76
2022/02/07 06:34:12;;;;;;;;;77.50;62.25;;;;;;;;5064168;28;8823;-76
2022/02/07 06:36:38;;;;;;;;;71.00;58.50;;;;;;;;5074152;28;8868;-76
2022/02/07 06:39:03;;;;;;;;;60.75;51.75;;;;;;;;5073158;28;8816;-76
2022/02/07 06:41:28;;;;;;;;;65.50;53.25;;;;;;;;5065095;28;8844;-75
2022/02/07 06:43:54;;;;;;;;;87.00;71.00;;;;;;;;5074355;28;8796;-75
2022/02/07 06:46:19;;;;;;;;;74.25;62.25;;;;;;;;5072086;28;8852;-75
2022/02/07 06:48:44;;;;;;;;;76.00;62.67;;;;;;;;5068444;28;8834;-75
2022/02/07 06:51:10;;;;;;;;;63.67;53.67;;;;;;;;5073947;28;8950;-76
2022/02/07 06:53:35;;;;;;;;;77.75;64.00;;;;;;;;5062741;28;8844;-77
2022/02/07 06:56:01;;;;;;;;;61.00;51.00;;;;;;;;5074526;28;8821;-76
2022/02/07 06:58:26;;;;;;;;;61.25;52.00;;;;;;;;5066005;28;8838;-76
2022/02/07 07:00:52;;;;;;;;;67.00;56.00;;;;;;;;5072913;28;8804;-76
2022/02/07 07:03:19;;;;;;;;;66.00;56.75;;;;;;;;5072464;28;8885;-77
2022/02/07 07:05:47;;;;;;;;;71.00;59.00;;;;;;;;5073718;28;8788;-77
2022/02/07 07:08:13;;;;;;;;;68.25;55.75;;;;;;;;5066202;28;8815;-83
2022/02/07 07:10:38;;;;;;;;;73.00;60.00;;;;;;;;5074104;28;8816;-82
2022/02/07 07:13:10;;;;;;;;;62.33;53.33;;;;;;;;5073232;28;8867;-76
2022/02/07 07:16:01;;;;;;;;;91.00;78.25;;;;;;;;5073656;28;8800;-76
2022/02/07 07:18:23;;;;;;;;;73.00;61.00;;;;;;;;5071389;28;9690;-76
2022/02/07 07:20:49;;;;;;;;;91.33;78.33;;;;;;;;5073632;28;11553;-76
2022/02/07 07:23:14;;;;;;;;;75.75;62.75;;;;;;;;5073929;28;8804;-76
2022/02/07 07:25:42;;;;;;;;;69.50;58.50;;;;;;;;5073922;28;8826;-76
2022/02/07 07:28:11;;;;;;;;;68.67;57.00;;;;;;;;5073724;28;8792;-76
2022/02/07 07:30:41;;;;;;;;;77.00;63.25;;;;;;;;5072386;28;9643;-76
2022/02/07 07:33:12;;;;;;;;;69.75;58.50;;;;;;;;5073795;28;8796;-76
2022/02/07 07:35:37;;;;;;;;;72.50;60.75;;;;;;;;5072248;28;8843;-76
2022/02/07 07:38:03;;;;;;;;;71.75;59.00;;;;;;;;5073560;28;11635;-76
2022/02/07 07:40:28;;;;;;;;;88.25;70.75;;;;;;;;5073794;28;10117;-76
2022/02/07 07:42:55;;;;;;;;;73.75;59.50;;;;;;;;5071120;28;8875;-76
2022/02/07 07:45:27;;;;;;;;;64.00;55.00;;;;;;;;5067813;28;8808;-76
2022/02/07 07:47:58;;;;;;;;;69.80;58.00;;;;;;;;5063819;28;8760;-76
2022/02/07 07:50:42;;;;;;;;;83.40;68.20;;;;;;;;5072517;28;8805;-76
2022/02/07 08:03:40;;;;;;;;;78.00;60.75;;;;;;;;5073509;28;8805;-76
2022/02/07 08:06:16;;;;;;;;;81.25;65.00;;;;;;;;5060163;28;8768;-76
2022/02/07 08:11:12;;;;;;;;;79.00;63.60;;;;;;;;5073327;28;8804;-76
2022/02/07 08:13:41;;;;;;;;;56.00;48.00;;;;;;;;5075984;28;8907;-76
2022/02/07 08:16:06;;;;;;;;;71.33;59.67;;;;;;;;5076177;28;11530;-76
2022/02/07 08:18:32;;;;;;;;;76.00;62.00;;;;;;;;5076607;28;8844;-76
2022/02/07 08:20:57;;;;;;;;;97.00;87.25;;;;;;;;5076633;28;8961;-76
2022/02/07 08:23:23;;;;;;;;;73.67;61.00;;;;;;;;5076513;28;8784;-76
2022/02/07 08:25:48;;;;;;;;;87.50;69.25;;;;;;;;5076631;28;8895;-76
2022/02/07 08:28:13;;;;;;;;;82.67;66.67;;;;;;;;5076031;28;8943;-76
2022/02/07 08:30:39;;;;;;;;;85.67;71.67;;;;;;;;5076825;28;8831;-76
2022/02/07 08:33:04;;;;;;;;;76.00;63.50;;;;;;;;5066628;28;8811;-76
2022/02/07 08:35:30;;;;;;;;;90.75;76.25;;;;;;;;5072867;28;8989;-76
2022/02/07 08:37:57;;;;;;;;;85.00;68.25;;;;;;;;5076310;28;8800;-76
2022/02/07 08:40:23;;;;;;;;;80.60;65.40;;;;;;;;5075243;28;8780;-76
2022/02/07 08:42:48;;;;;;;;;73.20;61.20;;;;;;;;5073375;28;8808;-76
2022/02/07 08:45:15;;;;;;;;;85.00;68.80;;;;;;;;5074655;28;8872;-76
2022/02/07 08:47:41;;;;;;;;;78.40;64.00;;;;;;;;5076158;28;8784;-76
2022/02/07 08:50:07;;;;;;;;;82.00;66.60;;;;;;;;5075432;28;8796;-76
2022/02/07 08:52:33;;;;;;;;;85.80;72.00;;;;;;;;5076278;28;8816;-76
2022/02/07 08:54:59;;;;;;;;;92.80;81.80;;;;;;;;5074267;28;8824;-76
2022/02/07 08:57:33;;;;;;;;;93.00;83.50;;;;;;;;5075308;28;8846;-76
2022/02/07 09:00:14;;;;;;;;;67.60;55.20;;;;;;;;5074003;28;9524;-76
2022/02/07 09:05:36;;;;;;;;;74.60;62.00;;;;;;;;5075505;28;8781;-76
2022/02/07 09:10:42;;;;;;;;;74.60;61.20;;;;;;;;5075554;28;8796;-76
2022/02/07 09:13:08;;;;;;;;;73.25;60.50;;;;;;;;5075225;28;8848;-76
2022/02/07 09:15:41;;;;;;;;;54.75;47.50;;;;;;;;5075579;28;8808;-78
2022/02/07 09:18:07;;;;;;;;;78.50;64.75;;;;;;;;5073736;28;8831;-79
2022/02/07 09:20:35;;;;;;;;;40.00;36.50;;;;;;;;5073299;28;8818;-77
2022/02/07 09:23:01;;;;;;;;;60.60;50.00;;;;;;;;5074641;28;8868;-78
2022/02/07 09:25:26;;;;;;;;;62.25;52.75;;;;;;;;5073883;28;8844;-78
2022/02/07 09:27:51;;;;;;;;;62.50;52.25;;;;;;;;5074774;28;8981;-78
2022/02/07 09:30:17;;;;;;;;;67.00;54.67;;;;;;;;5074736;28;8858;-78
2022/02/07 09:32:42;;;;;;;;;68.75;57.50;;;;;;;;5075030;28;8812;-78
2022/02/07 09:35:08;;;;;;;;;65.00;53.67;;;;;;;;5075218;28;8836;-78
2022/02/07 09:37:34;;;;;;;;;62.75;53.00;;;;;;;;5073525;28;8946;-78
2022/02/07 09:39:59;;;;;;;;;55.25;46.25;;;;;;;;5075070;28;8856;-78
2022/02/07 09:42:25;;;;;;;;;68.25;56.25;;;;;;;;5074697;28;8828;-78
2022/02/07 09:44:54;;;;;;;;;77.80;63.40;;;;;;;;5073480;28;8858;-78
2022/02/07 09:47:20;;;;;;;;;69.25;57.25;;;;;;;;5073483;28;8796;-77
2022/02/07 09:49:46;;;;;;;;;87.75;77.25;;;;;;;;5073285;28;8839;-78
2022/02/07 09:52:11;;;;;;;;;73.00;60.50;;;;;;;;5074584;28;8812;-78
2022/02/07 09:54:38;;;;;;;;;71.50;58.75;;;;;;;;5072610;28;8824;-78
2022/02/07 09:57:03;;;;;;;;;64.25;55.00;;;;;;;;5074522;28;8820;-77
2022/02/07 09:59:30;;;;;;;;;71.33;58.00;;;;;;;;5074703;28;10217;-77
2022/02/07 10:01:59;;;;;;;;;68.50;56.00;;;;;;;;5074598;28;11569;-77
2022/02/07 10:04:30;;;;;;;;;79.75;64.50;;;;;;;;5074763;28;8792;-77
2022/02/07 10:07:15;;;;;;;;;74.50;60.75;;;;;;;;5074913;28;8797;-78
2022/02/07 10:09:53;;;;;;;;;76.75;61.00;;;;;;;;5074438;28;8797;-78
2022/02/07 10:39:50;;;;;;;;;60.00;49.50;;;;;;;;5074336;28;8831;-76
2022/02/07 10:44:47;;;;;;;;;56.75;48.75;;;;;;;;5074102;28;8792;-77
2022/02/07 10:47:23;;;;;;;;;63.50;54.00;;;;;;;;5061263;28;9750;-77
2022/02/07 10:49:57;;;;;;;;;71.75;57.00;;;;;;;;5067528;28;8773;-77
2022/02/07 10:52:23;;;;;;;;;67.00;56.25;;;;;;;;5074298;28;8815;-77
2022/02/07 10:54:51;;;;;;;;;73.75;59.75;;;;;;;;5074118;28;12220;-77
2022/02/07 10:57:18;;;;;;;;;69.50;57.50;;;;;;;;5073879;28;8835;-77
2022/02/07 10:59:44;;;;;;;;;68.60;57.60;;;;;;;;5074212;28;8881;-77
2022/02/07 11:05:06;;;;;;;;;77.60;63.40;;;;;;;;5073872;28;8780;-77
2022/02/07 11:07:33;;;;;;;;;79.75;67.00;;;;;;;;5072382;28;8812;-78
2022/02/07 11:10:20;;;;;;;;;73.40;61.40;;;;;;;;5073690;28;8784;-78
2022/02/07 11:13:11;;;;;;;;;70.25;57.50;;;;;;;;5072028;28;8796;-78
2022/02/07 11:15:38;;;;;;;;;75.67;61.00;;;;;;;;5068058;28;8792;-78
2022/02/07 11:21:15;;;;;;;;;76.00;62.00;;;;;;;;5062960;28;8819;-78
2022/02/07 11:23:52;;;;;;;;;67.40;55.60;;;;;;;;5073618;28;9013;-78
2022/02/07 11:26:36;;;;;;;;;74.40;60.80;;;;;;;;5072023;28;8954;-78
2022/02/07 11:29:01;;;;;;;;;74.50;61.25;;;;;;;;5073109;28;8789;-78
2022/02/07 11:31:32;;;;;;;;;63.67;53.67;;;;;;;;5073781;28;8788;-78
2022/02/07 11:34:07;;;;;;;;;75.40;60.60;;;;;;;;5059299;28;8792;-78
2022/02/07 11:36:36;;;;;;;;;72.75;60.75;;;;;;;;5072064;28;8917;-78
2022/02/07 11:39:13;;;;;;;;;83.25;70.75;;;;;;;;5072081;28;8800;-78
2022/02/07 11:42:05;;;;;;;;;79.50;65.00;;;;;;;;5071890;28;8823;-78
2022/02/07 11:44:43;;;;;;;;;75.00;63.40;;;;;;;;5074210;28;8804;-78
2022/02/07 11:47:16;;;;;;;;;88.00;77.80;;;;;;;;5074104;28;9225;-78
2022/02/07 11:49:42;;;;;;;;;69.75;57.75;;;;;;;;5076962;28;8807;-78
2022/02/07 11:52:35;;;;;;;;;82.20;67.40;;;;;;;;5077096;28;8807;-78
2022/02/07 11:55:09;;;;;;;;;222.00;221.83;;;;;;;;5074944;28;8830;-78
2022/02/07 11:57:37;;;;;;;;;256.67;256.67;;;;;;;;5076074;28;8962;-78
2022/02/07 12:00:13;;;;;;;;;218.33;215.83;;;;;;;;5075227;28;8812;-77
2022/02/07 12:02:41;;;;;;;;;244.57;240.57;;;;;;;;5075047;28;8811;-77
2022/02/07 12:05:07;;;;;;;;;278.33;278.17;;;;;;;;5076462;28;8800;-77
2022/02/07 12:07:37;;;;;;;;;212.83;211.00;;;;;;;;5076797;28;8870;-80
2022/02/07 12:10:05;;;;;;;;;185.00;184.50;;;;;;;;5076549;28;9771;-80
2022/02/07 12:12:40;;;;;;;;;124.80;124.80;;;;;;;;5075211;28;8785;-80
2022/02/07 12:15:15;;;;;;;;;115.80;115.80;;;;;;;;5076374;28;8835;-80
2022/02/07 12:17:42;;;;;;;;;71.20;58.60;;;;;;;;5072027;28;8811;-80
2022/02/07 12:20:08;;;;;;;;;105.75;104.75;;;;;;;;5076500;28;8793;-80
2022/02/07 12:22:56;;;;;;;;;80.80;68.60;;;;;;;;5076098;28;8784;-80
2022/02/07 12:25:49;;;;;;;;;95.40;95.20;;;;;;;;5076612;28;9631;-80
2022/02/07 12:28:19;;;;;;;;;110.83;110.83;;;;;;;;5075982;28;8749;-80
2022/02/07 12:31:00;;;;;;;;;73.00;60.33;;;;;;;;5072297;28;8797;-80
2022/02/07 12:33:26;;;;;;;;;102.80;102.80;;;;;;;;5063215;28;8783;-80
2022/02/07 12:35:58;;;;;;;;;108.80;107.80;;;;;;;;5074042;28;8969;-80
2022/02/07 12:38:25;;;;;;;;;94.75;88.75;;;;;;;;5075848;28;8808;-81
2022/02/07 12:40:51;;;;;;;;;110.60;110.40;;;;;;;;5076120;28;9675;-81
2022/02/07 12:43:18;;;;;;;;;95.40;94.40;;;;;;;;5075635;28;9027;-80
2022/02/07 12:45:43;;;;;;;;;115.40;115.40;;;;;;;;5074262;28;8944;-80
2022/02/07 12:48:19;;;;;;;;;103.40;101.60;;;;;;;;5075776;28;8935;-80
2022/02/07 12:50:49;;;;;;;;;116.20;115.60;;;;;;;;5075644;28;8792;-80
2022/02/07 12:53:18;;;;;;;;;85.20;75.00;;;;;;;;5075822;28;9664;-81
2022/02/07 12:55:45;;;;;;;;;110.60;109.40;;;;;;;;5075822;28;8803;-81
2022/02/07 12:58:11;;;;;;;;;93.80;91.20;;;;;;;;5074790;28;8814;-81
2022/02/07 13:00:36;;;;;;;;;105.25;103.50;;;;;;;;5075710;28;8820;-81
2022/02/07 13:03:02;;;;;;;;;132.40;132.40;;;;;;;;5075423;28;8796;-81
2022/02/07 13:05:28;;;;;;;;;130.50;128.17;;;;;;;;5075397;28;8745;-81
2022/02/07 13:07:54;;;;;;;;;78.75;66.75;;;;;;;;5074378;28;8804;-81
2022/02/07 13:10:21;;;;;;;;;79.75;68.00;;;;;;;;5075526;28;9451;-81
2022/02/07 13:15:23;;;;;;;;;99.40;98.00;;;;;;;;5075472;28;10104;-79
2022/02/07 13:17:52;;;;;;;;;80.20;69.00;;;;;;;;5070679;28;8823;-79
2022/02/07 13:20:19;;;;;;;;;82.80;72.80;;;;;;;;5075237;28;8827;-78
2022/02/07 13:22:44;;;;;;;;;85.25;76.25;;;;;;;;5065324;28;8772;-79
2022/02/07 13:25:09;;;;;;;;;89.00;83.50;;;;;;;;5075555;28;8793;-79
2022/02/07 13:27:37;;;;;;;;;89.50;84.00;;;;;;;;5074999;28;8871;-79
2022/02/07 13:30:02;;;;;;;;;95.80;93.00;;;;;;;;5074940;28;8792;-79
2022/02/07 13:32:30;;;;;;;;;84.00;75.25;;;;;;;;5070177;28;8964;-79
2022/02/07 13:35:07;;;;;;;;;87.25;79.25;;;;;;;;5070106;28;8803;-78
2022/02/07 13:37:33;;;;;;;;;76.00;62.40;;;;;;;;5060517;28;11595;-80
2022/02/07 13:40:04;;;;;;;;;69.50;57.50;;;;;;;;5075140;28;8845;-78
2022/02/07 13:42:31;;;;;;;;;71.80;59.00;;;;;;;;5075027;28;8813;-79
2022/02/07 13:44:58;;;;;;;;;72.40;60.00;;;;;;;;5074759;28;8764;-79
2022/02/07 13:47:24;;;;;;;;;63.00;52.33;;;;;;;;5076396;28;8971;-79
2022/02/07 13:49:54;;;;;;;;;71.75;58.75;;;;;;;;5073321;28;11573;-79
2022/02/07 13:52:20;;;;;;;;;71.00;58.00;;;;;;;;5075019;28;8803;-79
2022/02/07 13:54:45;;;;;;;;;65.25;54.75;;;;;;;;5075078;28;8808;-79
2022/02/07 13:57:12;;;;;;;;;61.00;50.33;;;;;;;;5074598;28;8852;-79
2022/02/07 13:59:37;;;;;;;;;57.80;49.60;;;;;;;;5075059;28;8929;-80
2022/02/07 14:02:02;;;;;;;;;73.75;61.00;;;;;;;;5074773;28;8813;-80
2022/02/07 14:04:30;;;;;;;;;56.67;48.00;;;;;;;;5074992;28;8953;-80
2022/02/07 14:07:06;;;;;;;;;65.00;53.50;;;;;;;;5074940;28;8788;-80
2022/02/07 14:09:32;;;;;;;;;66.00;55.50;;;;;;;;5073382;28;11539;-80
2022/02/07 14:11:59;;;;;;;;;72.00;59.25;;;;;;;;5074325;28;8914;-79
2022/02/07 14:14:27;;;;;;;;;67.40;56.40;;;;;;;;5074239;28;8800;-79
2022/02/07 14:16:52;;;;;;;;;66.20;53.80;;;;;;;;5070173;28;8800;-79
2022/02/07 14:19:32;;;;;;;;;73.50;60.00;;;;;;;;5072922;28;8866;-79
2022/02/07 14:21:57;;;;;;;;;71.00;58.60;;;;;;;;5074540;28;8840;-79
2022/02/07 14:24:26;;;;;;;;;66.50;55.50;;;;;;;;5074355;28;8899;-79
2022/02/07 14:26:51;;;;;;;;;83.80;74.00;;;;;;;;5073926;28;8808;-79
2022/02/07 14:29:16;;;;;;;;;94.25;91.25;;;;;;;;5074085;28;8869;-80
2022/02/07 14:31:42;;;;;;;;;108.75;105.50;;;;;;;;5073984;28;8808;-80
2022/02/07 14:34:07;;;;;;;;;132.00;131.75;;;;;;;;5060545;28;8808;-80
2022/02/07 14:36:35;;;;;;;;;130.00;129.00;;;;;;;;5073986;28;11527;-80
2022/02/07 14:39:01;;;;;;;;;129.83;129.83;;;;;;;;5074098;28;8784;-80
2022/02/07 14:41:26;;;;;;;;;126.50;126.00;;;;;;;;5072848;28;8808;-80
2022/02/07 14:43:59;;;;;;;;;151.25;151.25;;;;;;;;5072166;28;11709;-80
2022/02/07 14:46:32;;;;;;;;;138.60;138.20;;;;;;;;5074178;28;8792;-80
2022/02/07 14:48:57;;;;;;;;;96.20;94.60;;;;;;;;5062183;28;8800;-80
2022/02/07 14:51:23;;;;;;;;;95.67;93.33;;;;;;;;5073724;28;8856;-80
2022/02/07 14:53:49;;;;;;;;;87.75;80.25;;;;;;;;5072391;28;8838;-80
2022/02/07 14:56:15;;;;;;;;;68.40;56.60;;;;;;;;5074109;28;12407;-80
2022/02/07 14:58:40;;;;;;;;;68.00;55.75;;;;;;;;5072513;28;8881;-81
2022/02/07 15:01:06;;;;;;;;;79.33;68.67;;;;;;;;5074093;28;8784;-81
2022/02/07 15:03:31;;;;;;;;;71.75;58.75;;;;;;;;5072704;28;8989;-81
2022/02/07 15:05:57;;;;;;;;;62.67;52.33;;;;;;;;5072594;28;8835;-81
2022/02/07 15:08:23;;;;;;;;;70.50;58.25;;;;;;;;5074205;28;9126;-81
2022/02/07 15:10:49;;;;;;;;;76.25;61.75;;;;;;;;5072101;28;11595;-81
2022/02/07 15:13:14;;;;;;;;;63.50;52.50;;;;;;;;5073775;28;9371;-81
2022/02/07 15:15:40;;;;;;;;;73.75;60.25;;;;;;;;5072331;28;9397;-81
2022/02/07 15:18:07;;;;;;;;;56.50;47.00;;;;;;;;5069549;28;9073;-81
2022/02/07 15:20:33;;;;;;;;;73.00;59.50;;;;;;;;5074522;28;8713;-80
2022/02/07 15:22:58;;;;;;;;;67.40;56.40;;;;;;;;5078875;28;8804;-81
2022/02/07 15:25:31;;;;;;;;;66.75;55.25;;;;;;;;5080419;28;8812;-81
2022/02/07 15:28:00;;;;;;;;;61.75;52.25;;;;;;;;5078519;28;8804;-81
2022/02/07 15:30:30;;;;;;;;;37.00;35.75;;;;;;;;5078510;28;8792;-81
2022/02/07 15:32:58;;;;;;;;;67.75;56.00;;;;;;;;5070108;28;8799;-81
2022/02/07 15:35:23;;;;;;;;;56.00;48.33;;;;;;;;5075659;28;8771;-81
2022/02/07 15:37:49;;;;;;;;;67.00;56.00;;;;;;;;5079881;28;8820;-81
2022/02/07 15:40:14;;;;;;;;;55.00;46.75;;;;;;;;5080056;28;8820;-81
2022/02/07 15:42:43;;;;;;;;;53.00;45.67;;;;;;;;5080121;28;8823;-81
2022/02/07 15:45:08;;;;;;;;;60.00;50.50;;;;;;;;5078351;28;9707;-81
2022/02/07 15:47:34;;;;;;;;;64.75;54.25;;;;;;;;5079983;28;8918;-81
2022/02/07 15:50:11;;;;;;;;;33.80;30.80;;;;;;;;5079595;28;8809;-81
2022/02/07 15:52:37;;;;;;;;;61.60;52.00;;;;;;;;5080015;28;8748;-81
2022/02/07 15:55:02;;;;;;;;;53.00;43.40;;;;;;;;5079887;28;9485;-81
2022/02/07 15:57:28;;;;;;;;;80.67;70.00;;;;;;;;5078160;28;8836;-80
2022/02/07 15:59:53;;;;;;;;;70.75;58.00;;;;;;;;5078406;28;8844;-80
2022/02/07 16:02:18;;;;;;;;;88.75;82.75;;;;;;;;5079977;28;8942;-80
2022/02/07 16:04:44;;;;;;;;;99.25;98.25;;;;;;;;5078294;28;8864;-81
2022/02/07 16:07:09;;;;;;;;;67.25;54.75;;;;;;;;5080120;28;8816;-81
2022/02/07 16:09:35;;;;;;;;;109.40;108.40;;;;;;;;5079287;28;8827;-80
2022/02/07 16:12:08;;;;;;;;;84.20;75.60;;;;;;;;5078188;28;9291;-80
2022/02/07 16:14:34;;;;;;;;;93.20;90.60;;;;;;;;5078195;28;8836;-80
2022/02/07 16:17:00;;;;;;;;;141.20;141.20;;;;;;;;5075527;28;8828;-80
2022/02/07 16:19:29;;;;;;;;;112.80;112.40;;;;;;;;5078436;28;8828;-80
2022/02/07 16:21:54;;;;;;;;;132.40;132.40;;;;;;;;5078073;28;8795;-80
2022/02/07 16:24:20;;;;;;;;;171.00;171.00;;;;;;;;5079424;28;8809;-81
2022/02/07 16:26:46;;;;;;;;;99.40;98.00;;;;;;;;5078045;28;8812;-81
2022/02/07 16:29:11;;;;;;;;;210.20;210.00;;;;;;;;5066148;28;8938;-81
2022/02/07 16:31:37;;;;;;;;;139.00;139.00;;;;;;;;5077400;28;8824;-79
2022/02/07 16:34:02;;;;;;;;;256.33;256.33;;;;;;;;5059565;28;8839;-81
2022/02/07 16:36:28;;;;;;;;;220.40;219.00;;;;;;;;5074418;28;8915;-82
2022/02/07 16:38:53;;;;;;;;;147.60;147.60;;;;;;;;5076000;28;9670;-81
2022/02/07 16:41:23;;;;;;;;;146.60;145.20;;;;;;;;5074597;28;8839;-82
2022/02/07 16:43:48;;;;;;;;;178.60;177.80;;;;;;;;5075497;28;8773;-82
2022/02/07 16:46:36;;;;;;;;;162.60;162.00;;;;;;;;5075863;28;8932;-82
2022/02/07 16:49:03;;;;;;;;;233.40;233.40;;;;;;;;5064471;28;8800;-82
2022/02/07 16:51:33;;;;;;;;;239.00;235.00;;;;;;;;5075252;28;8878;-82
2022/02/07 16:53:59;;;;;;;;;172.67;170.00;;;;;;;;5075792;28;8788;-82
2022/02/07 16:56:24;;;;;;;;;181.00;180.00;;;;;;;;5075152;28;8855;-82
2022/02/07 16:58:49;;;;;;;;;180.20;179.00;;;;;;;;5075815;28;8813;-82
2022/02/07 17:01:15;;;;;;;;;193.80;193.20;;;;;;;;5075571;28;8812;-82